createdAt,value
2022-12-19T00:00:26.322Z,20.70
2022-12-19T00:02:54.854Z,21.93
2022-12-19T00:05:23.488Z,21.00
2022-12-19T00:07:53.626Z,21.40
2022-12-19T00:10:22.006Z,21.80
2022-12-19T00:12:50.378Z,20.23
2022-12-19T00:15:18.840Z,21.83
2022-12-19T00:17:48.590Z,19.77
2022-12-19T00:20:18.597Z,19.90
2022-12-19T00:22:47.412Z,21.20
2022-12-19T00:25:18.234Z,20.50
2022-12-19T00:27:47.555Z,19.83
2022-12-19T00:30:15.896Z,20.10
2022-12-19T00:32:44.256Z,20.43
2022-12-19T00:35:14.006Z,20.13
2022-12-19T00:37:46.999Z,21.73
2022-12-19T00:40:18.261Z,19.20
2022-12-19T00:42:51.825Z,19.17
2022-12-19T00:45:21.999Z,20.17
2022-12-19T00:47:50.448Z,20.73
2022-12-19T00:50:20.215Z,20.50
2022-12-19T00:52:48.651Z,20.97
2022-12-19T00:55:19.081Z,19.83
2022-12-19T00:57:47.808Z,21.83
2022-12-19T01:00:18.806Z,21.17
2022-12-19T01:02:47.461Z,21.93
2022-12-19T01:05:16.082Z,21.17
2022-12-19T01:07:48.796Z,21.07
2022-12-19T01:10:17.239Z,20.13
2022-12-19T01:12:47.379Z,20.50
2022-12-19T01:15:17.028Z,22.20
2022-12-19T01:17:45.428Z,21.10
2022-12-19T01:20:14.693Z,20.40
2022-12-19T01:22:43.076Z,22.50
2022-12-19T01:25:13.170Z,21.60
2022-12-19T01:27:41.936Z,20.53
2022-12-19T01:30:11.011Z,21.27
2022-12-19T01:32:39.498Z,23.23
2022-12-19T01:35:11.386Z,22.50
2022-12-19T01:37:49.832Z,21.97
2022-12-19T01:40:19.574Z,22.43
2022-12-19T01:42:48.215Z,22.70
2022-12-19T01:45:33.163Z,23.00
2022-12-19T01:48:17.502Z,25.37
2022-12-19T01:51:01.301Z,21.33
2022-12-19T01:53:32.221Z,23.10
2022-12-19T01:56:08.560Z,21.20
2022-12-19T01:58:37.696Z,21.73
2022-12-19T02:01:06.218Z,21.57
2022-12-19T02:03:36.190Z,21.23
2022-12-19T02:06:06.251Z,21.67
2022-12-19T02:08:34.710Z,22.70
2022-12-19T02:11:04.806Z,20.63
2022-12-19T02:13:33.299Z,21.57
2022-12-19T02:16:03.684Z,20.30
2022-12-19T02:18:37.063Z,20.83
2022-12-19T02:21:15.811Z,21.13
2022-12-19T02:23:59.054Z,18.30
2022-12-19T02:26:38.940Z,20.73
2022-12-19T02:29:25.759Z,20.13
2022-12-19T02:31:57.686Z,19.77
2022-12-19T02:34:30.637Z,19.33
2022-12-19T02:37:03.174Z,19.50
2022-12-19T02:39:35.895Z,20.27
2022-12-19T02:42:05.439Z,18.73
2022-12-19T02:44:35.400Z,19.43
2022-12-19T02:47:06.220Z,20.10
2022-12-19T02:49:35.605Z,19.07
2022-12-19T02:52:10.659Z,20.17
2022-12-19T02:54:42.243Z,18.40
2022-12-19T02:57:17.248Z,19.40
2022-12-19T02:59:52.192Z,18.93
2022-12-19T03:02:29.068Z,17.73
2022-12-19T03:04:59.969Z,18.50
2022-12-19T03:07:31.634Z,18.00
2022-12-19T03:10:04.010Z,17.63
2022-12-19T03:12:34.661Z,17.73
2022-12-19T03:15:03.416Z,17.47
2022-12-19T03:17:36.715Z,17.93
2022-12-19T03:20:07.237Z,18.53
2022-12-19T03:22:35.697Z,18.13
2022-12-19T03:25:04.082Z,18.47
2022-12-19T03:27:35.138Z,19.33
2022-12-19T03:30:04.724Z,19.87
2022-12-19T03:32:36.494Z,19.63
2022-12-19T03:35:06.102Z,19.70
2022-12-19T03:37:36.494Z,18.77
2022-12-19T03:40:08.341Z,20.67
2022-12-19T03:42:55.494Z,20.03
2022-12-19T03:45:27.806Z,20.63
2022-12-19T03:48:00.371Z,20.65
2022-12-19T03:50:32.590Z,20.00
2022-12-19T03:53:05.712Z,18.07
2022-12-19T03:55:38.150Z,19.60
2022-12-19T03:58:08.223Z,18.30
2022-12-19T04:00:38.527Z,19.03
2022-12-19T04:03:09.145Z,20.17
2022-12-19T04:05:40.034Z,19.90
2022-12-19T04:08:10.290Z,18.93
2022-12-19T04:10:41.519Z,18.93
2022-12-19T04:13:12.466Z,19.63
2022-12-19T04:15:44.219Z,20.27
2022-12-19T04:18:15.526Z,20.73
2022-12-19T04:20:46.778Z,19.50
2022-12-19T04:23:17.851Z,19.90
2022-12-19T04:25:48.229Z,20.20
2022-12-19T04:28:19.181Z,21.23
2022-12-19T04:30:48.280Z,20.73
2022-12-19T04:33:18.080Z,22.13
2022-12-19T04:35:46.506Z,22.43
2022-12-19T04:38:14.923Z,24.07
2022-12-19T04:40:43.328Z,22.70
2022-12-19T04:43:11.704Z,22.77
2022-12-19T04:45:42.082Z,21.50
2022-12-19T04:48:11.023Z,24.37
2022-12-19T04:50:40.782Z,25.13
2022-12-19T04:53:09.149Z,23.37
2022-12-19T04:55:37.678Z,22.73
2022-12-19T04:58:06.551Z,25.03
2022-12-19T05:00:35.364Z,24.23
2022-12-19T05:03:04.175Z,25.43
2022-12-19T05:05:32.638Z,24.60
2022-12-19T05:08:02.408Z,24.97
2022-12-19T05:10:30.752Z,23.97
2022-12-19T05:12:59.193Z,25.63
2022-12-19T05:15:27.527Z,23.70
2022-12-19T05:17:55.910Z,26.07
2022-12-19T05:20:24.283Z,27.27
2022-12-19T05:22:52.652Z,25.63
2022-12-19T05:25:22.512Z,26.37
2022-12-19T05:27:50.899Z,26.47
2022-12-19T05:30:19.257Z,25.47
2022-12-19T05:32:47.627Z,28.70
2022-12-19T05:35:16.095Z,26.27
2022-12-19T05:37:44.493Z,28.63
2022-12-19T05:40:13.393Z,27.57
2022-12-19T05:42:43.171Z,27.73
2022-12-19T05:45:11.598Z,26.43
2022-12-19T05:47:39.968Z,29.03
2022-12-19T05:50:08.830Z,28.80
2022-12-19T05:52:38.126Z,26.13
2022-12-19T05:55:07.262Z,28.90
2022-12-19T05:57:35.802Z,29.20
2022-12-19T06:00:08.433Z,29.77
2022-12-19T06:02:36.915Z,28.17
2022-12-19T06:05:05.610Z,27.93
2022-12-19T06:07:37.327Z,26.67
2022-12-19T06:10:06.494Z,29.33
2022-12-19T06:12:34.892Z,27.97
2022-12-19T06:15:04.647Z,28.77
2022-12-19T06:17:33.139Z,30.30
2022-12-19T06:20:01.579Z,29.60
2022-12-19T06:22:29.969Z,28.90
2022-12-19T06:24:58.348Z,28.17
2022-12-19T06:27:26.715Z,30.03
2022-12-19T06:29:55.094Z,27.55
2022-12-19T06:32:24.884Z,29.70
2022-12-19T06:35:04.210Z,29.63
2022-12-19T06:37:32.970Z,28.23
2022-12-19T06:40:01.338Z,29.75
2022-12-19T06:42:28.758Z,28.27
2022-12-19T06:44:57.533Z,27.43
2022-12-19T06:47:27.308Z,29.10
2022-12-19T06:49:55.696Z,28.40
2022-12-19T06:52:24.075Z,27.33
2022-12-19T06:54:52.510Z,29.05
2022-12-19T06:57:20.907Z,27.55
2022-12-19T06:59:49.312Z,27.45
2022-12-19T07:02:26.284Z,26.77
2022-12-19T07:04:58.511Z,27.65
2022-12-19T07:07:26.883Z,27.60
2022-12-19T07:09:55.290Z,28.65
2022-12-19T07:12:23.699Z,26.42
2022-12-19T07:14:53.772Z,25.67
2022-12-19T07:17:22.810Z,26.80
2022-12-19T07:19:52.488Z,26.27
2022-12-19T07:22:22.499Z,26.30
2022-12-19T07:24:50.905Z,26.52
2022-12-19T07:27:19.304Z,25.27
2022-12-19T07:29:47.630Z,26.52
2022-12-19T07:32:16.039Z,25.60
2022-12-19T07:34:44.399Z,24.45
2022-12-19T07:37:12.807Z,24.73
2022-12-19T07:39:42.642Z,24.60
2022-12-19T07:42:11.113Z,25.50
2022-12-19T07:44:39.500Z,23.45
2022-12-19T07:47:08.146Z,25.75
2022-12-19T07:49:36.490Z,23.60
2022-12-19T07:52:04.900Z,23.70
2022-12-19T07:54:33.360Z,23.58
2022-12-19T07:57:03.199Z,24.52
2022-12-19T07:59:38.667Z,23.90
2022-12-19T08:02:08.073Z,23.65
2022-12-19T08:04:37.093Z,23.77
2022-12-19T08:07:05.604Z,23.90
2022-12-19T08:09:34.102Z,23.13
2022-12-19T08:12:04.361Z,22.08
2022-12-19T08:14:32.727Z,21.92
2022-12-19T08:19:49.441Z,22.27
2022-12-19T08:22:17.865Z,23.00
2022-12-19T08:24:46.217Z,22.23
2022-12-19T08:27:17.218Z,21.05
2022-12-19T08:29:45.602Z,21.88
2022-12-19T08:32:20.213Z,20.95
2022-12-19T08:34:49.546Z,23.48
2022-12-19T08:37:17.937Z,21.45
2022-12-19T08:39:46.466Z,21.90
2022-12-19T08:42:16.279Z,20.85
2022-12-19T08:44:44.666Z,21.45
2022-12-19T08:47:13.063Z,20.35
2022-12-19T08:49:41.460Z,20.25
2022-12-19T08:52:09.854Z,20.90
2022-12-19T08:54:38.487Z,22.08
2022-12-19T08:57:06.876Z,20.10
2022-12-19T08:59:36.634Z,19.77
2022-12-19T09:02:06.598Z,21.38
2022-12-19T09:05:58.786Z,19.80
2022-12-19T09:07:23.593Z,19.35
2022-12-19T09:09:51.979Z,20.02
2022-12-19T09:12:20.622Z,19.65
2022-12-19T09:14:50.599Z,17.38
2022-12-19T09:17:19.058Z,19.15
2022-12-19T09:19:48.271Z,19.48
2022-12-19T09:22:17.227Z,20.08
2022-12-19T09:24:45.708Z,19.05
2022-12-19T09:27:14.349Z,19.63
2022-12-19T09:29:43.609Z,19.05
2022-12-19T09:32:13.500Z,18.45
2022-12-19T09:34:41.883Z,18.90
2022-12-19T09:37:16.065Z,17.90
2022-12-19T09:39:46.529Z,18.13
2022-12-19T09:42:35.117Z,18.25
2022-12-19T09:45:31.980Z,19.30
2022-12-19T09:48:03.262Z,17.85
2022-12-19T09:50:44.505Z,18.48
2022-12-19T09:53:16.303Z,18.63
2022-12-19T09:55:45.931Z,17.83
2022-12-19T09:58:16.080Z,18.48
2022-12-19T10:00:46.041Z,17.65
2022-12-19T10:03:19.929Z,18.23
2022-12-19T10:05:59.749Z,17.25
2022-12-19T10:08:47.230Z,16.98
2022-12-19T10:12:44.784Z,17.33
2022-12-19T10:14:38.522Z,17.13
2022-12-19T10:17:24.080Z,17.90
2022-12-19T10:20:03.349Z,17.77
2022-12-19T10:22:35.454Z,17.10
2022-12-19T10:25:09.804Z,17.63
2022-12-19T10:27:44.303Z,16.83
2022-12-19T10:30:29.084Z,16.30
2022-12-19T10:33:20.490Z,17.05
2022-12-19T10:35:54.174Z,15.80
2022-12-19T10:38:26.054Z,16.63
2022-12-19T10:40:57.199Z,16.38
2022-12-19T10:43:34.641Z,16.75
2022-12-19T10:46:12.788Z,16.45
2022-12-19T10:48:41.232Z,16.15
2022-12-19T10:51:14.315Z,15.18
2022-12-19T10:53:42.693Z,16.40
2022-12-19T10:56:23.688Z,15.75
2022-12-19T10:58:57.323Z,14.50
2022-12-19T11:01:27.554Z,14.73
2022-12-19T11:04:13.040Z,15.55
2022-12-19T11:06:48.249Z,15.60
2022-12-19T11:09:34.366Z,15.65
2022-12-19T11:16:02.508Z,15.77
2022-12-19T11:19:48.061Z,14.60
2022-12-19T11:26:18.505Z,15.88
2022-12-19T11:29:34.035Z,16.15
2022-12-19T11:29:40.284Z,15.52
2022-12-19T11:30:08.454Z,14.98
2022-12-19T11:30:46.430Z,15.60
2022-12-19T11:32:38.930Z,14.88
2022-12-19T11:34:50.773Z,15.80
2022-12-19T11:37:21.365Z,15.48
2022-12-19T11:39:52.356Z,15.07
2022-12-19T11:42:25.381Z,15.43
2022-12-19T11:44:58.153Z,14.48
2022-12-19T11:47:42.423Z,14.18
2022-12-19T11:50:15.462Z,14.98
2022-12-19T11:55:41.297Z,14.80
2022-12-19T11:58:11.427Z,13.50
2022-12-19T12:00:42.180Z,13.25
2022-12-19T12:03:19.218Z,13.50
2022-12-19T12:05:48.447Z,13.98
2022-12-19T12:11:02.825Z,14.10
2022-12-19T12:14:26.673Z,13.50
2022-12-19T12:24:08.939Z,13.55
2022-12-19T12:24:54.924Z,12.60
2022-12-19T12:26:24.235Z,12.65
2022-12-19T12:31:48.871Z,13.52
2022-12-19T12:31:49.685Z,12.65
2022-12-19T12:31:58.103Z,12.80
2022-12-19T12:35:46.391Z,12.48
2022-12-19T12:35:54.548Z,11.80
2022-12-19T12:40:46.882Z,11.65
2022-12-19T12:43:19.952Z,11.77
2022-12-19T12:45:49.839Z,11.50
2022-12-19T12:48:21.051Z,11.07
2022-12-19T12:50:55.026Z,12.18
2022-12-19T12:53:26.767Z,11.60
2022-12-19T12:55:56.524Z,11.35
2022-12-19T12:58:43.740Z,11.13
2022-12-19T13:01:17.896Z,10.88
2022-12-19T13:03:53.425Z,11.25
2022-12-19T13:06:26.574Z,10.88
2022-12-19T13:08:57.588Z,10.10
2022-12-19T13:11:56.897Z,11.05
2022-12-19T13:14:48.575Z,11.68
2022-12-19T13:17:25.513Z,10.20
2022-12-19T13:19:55.355Z,9.60
2022-12-19T13:22:38.893Z,10.82
2022-12-19T13:25:22.096Z,10.13
2022-12-19T13:27:53.067Z,10.05
2022-12-19T13:30:21.883Z,10.02
2022-12-19T13:33:11.157Z,10.63
2022-12-19T13:36:38.031Z,10.48
2022-12-19T13:40:01.585Z,9.73
2022-12-19T13:41:47.897Z,9.75
2022-12-19T13:44:19.965Z,10.15
2022-12-19T13:46:48.543Z,9.85
2022-12-19T13:49:20.989Z,10.25
2022-12-19T13:51:50.471Z,10.23
2022-12-19T13:54:23.859Z,9.35
2022-12-19T13:56:52.913Z,10.55
2022-12-19T13:59:22.334Z,10.90
2022-12-19T14:01:52.654Z,9.13
2022-12-19T14:04:28.058Z,9.10
2022-12-19T14:06:59.371Z,9.25
2022-12-19T14:11:28.003Z,9.60
2022-12-19T14:13:43.950Z,8.98
2022-12-19T14:15:31.703Z,9.05
2022-12-19T14:18:08.316Z,9.25
2022-12-19T14:22:05.319Z,9.10
2022-12-19T14:23:43.578Z,9.50
2022-12-19T14:28:21.947Z,9.13
2022-12-19T14:29:05.218Z,9.00
2022-12-19T14:31:34.123Z,9.38
2022-12-19T14:36:54.397Z,8.23
2022-12-19T14:39:29.327Z,8.60
2022-12-19T14:43:57.212Z,8.27
2022-12-19T14:52:25.922Z,8.65
2022-12-19T14:54:01.313Z,8.75
2022-12-19T14:54:33.978Z,8.70
2022-12-19T14:58:07.914Z,7.55
2022-12-19T15:01:07.946Z,8.65
2022-12-19T15:03:15.656Z,8.25
2022-12-19T15:05:44.507Z,8.70
2022-12-19T15:08:13.160Z,8.75
2022-12-19T15:11:07.709Z,7.78
2022-12-19T15:14:54.465Z,8.10
2022-12-19T15:16:29.401Z,8.70
2022-12-19T15:18:59.299Z,7.88
2022-12-19T15:21:28.314Z,7.60
2022-12-19T15:23:56.807Z,7.32
2022-12-19T15:26:30.561Z,7.82
2022-12-19T15:28:59.182Z,7.65
2022-12-19T15:31:29.955Z,7.57
2022-12-19T15:36:47.028Z,7.53
2022-12-19T15:39:16.084Z,7.15
2022-12-19T15:41:46.655Z,7.05
2022-12-19T15:44:17.679Z,6.90
2022-12-19T15:46:48.983Z,6.80
2022-12-19T15:49:18.563Z,7.45
2022-12-19T15:51:47.118Z,7.40
2022-12-19T15:54:47.087Z,7.13
2022-12-19T15:57:06.298Z,7.70
2022-12-19T15:59:37.715Z,7.43
2022-12-19T16:02:14.568Z,7.47
2022-12-19T16:04:43.131Z,7.18
2022-12-19T16:07:15.239Z,6.88
2022-12-19T16:09:43.636Z,7.20
2022-12-19T16:12:15.394Z,6.88
2022-12-19T16:14:43.825Z,6.80
2022-12-19T16:17:13.952Z,7.70
2022-12-19T16:19:42.428Z,6.38
2022-12-19T16:22:18.012Z,6.70
2022-12-19T16:24:46.398Z,6.72
2022-12-19T16:27:19.869Z,6.40
2022-12-19T16:29:48.232Z,6.68
2022-12-19T16:32:16.661Z,6.28
2022-12-19T16:34:45.016Z,5.85
2022-12-19T16:37:14.071Z,6.35
2022-12-19T16:39:42.417Z,6.07
2022-12-19T16:42:16.118Z,6.38
2022-12-19T16:44:46.604Z,7.00
2022-12-19T16:47:15.816Z,6.47
2022-12-19T16:49:44.600Z,7.30
2022-12-19T16:52:13.097Z,5.97
2022-12-19T16:54:41.560Z,6.20
2022-12-19T16:57:17.625Z,6.45
2022-12-19T16:59:47.424Z,5.75
2022-12-19T17:02:27.769Z,6.28
2022-12-19T17:04:56.657Z,5.78
2022-12-19T17:07:25.040Z,6.18
2022-12-19T17:09:53.408Z,5.85
2022-12-19T17:12:22.080Z,5.93
2022-12-19T17:14:51.880Z,6.05
2022-12-19T17:17:20.305Z,6.07
2022-12-19T17:19:48.701Z,5.85
2022-12-19T17:22:18.090Z,5.70
2022-12-19T17:24:47.652Z,6.40
2022-12-19T17:27:17.453Z,5.80
2022-12-19T17:29:47.103Z,6.25
2022-12-19T17:32:23.483Z,5.80
2022-12-19T17:34:52.305Z,5.43
2022-12-19T17:37:20.779Z,5.57
2022-12-19T17:39:49.563Z,5.72
2022-12-19T17:42:20.389Z,6.53
2022-12-19T17:44:48.858Z,5.88
2022-12-19T17:47:19.739Z,5.53
2022-12-19T17:49:49.108Z,5.85
2022-12-19T17:52:19.342Z,6.32
2022-12-19T17:54:47.871Z,5.82
2022-12-19T17:57:16.855Z,6.28
2022-12-19T17:59:46.342Z,6.32
2022-12-19T18:02:21.702Z,5.53
2022-12-19T18:04:50.828Z,6.15
2022-12-19T18:07:19.859Z,6.03
2022-12-19T18:09:48.277Z,6.30
2022-12-19T18:12:16.729Z,5.63
2022-12-19T18:14:45.101Z,5.72
2022-12-19T18:17:13.793Z,5.75
2022-12-19T18:19:43.822Z,5.45
2022-12-19T18:22:14.057Z,6.32
2022-12-19T18:24:42.420Z,6.53
2022-12-19T18:27:10.798Z,5.82
2022-12-19T18:29:39.198Z,5.70
2022-12-19T18:32:07.915Z,5.32
2022-12-19T18:34:36.616Z,5.55
2022-12-19T18:37:06.587Z,6.05
2022-12-19T18:39:34.961Z,5.45
2022-12-19T18:42:03.448Z,5.93
2022-12-19T18:44:31.861Z,5.80
2022-12-19T18:47:01.290Z,5.88
2022-12-19T18:49:29.653Z,5.90
2022-12-19T18:51:58.047Z,6.13
2022-12-19T18:54:27.842Z,5.70
2022-12-19T18:56:57.149Z,5.38
2022-12-19T18:59:25.577Z,6.43
2022-12-19T19:01:55.598Z,6.50
2022-12-19T19:04:24.095Z,5.68
2022-12-19T19:06:55.158Z,5.82
2022-12-19T19:09:24.169Z,5.80
2022-12-19T19:11:53.931Z,6.22
2022-12-19T19:14:22.317Z,5.50
2022-12-19T19:16:52.528Z,5.45
2022-12-19T19:19:21.086Z,5.20
2022-12-19T19:21:49.478Z,5.80
2022-12-19T19:24:19.322Z,5.32
2022-12-19T19:26:47.913Z,5.53
2022-12-19T19:29:19.823Z,6.13
2022-12-19T19:31:50.003Z,5.57
2022-12-19T19:34:22.712Z,5.70
2022-12-19T19:36:53.813Z,5.88
2022-12-19T19:39:22.920Z,6.03
2022-12-19T19:41:51.659Z,5.85
2022-12-19T19:44:21.449Z,5.45
2022-12-19T19:46:50.118Z,5.35
2022-12-19T19:49:19.265Z,5.82
2022-12-19T19:51:47.654Z,5.30
2022-12-19T19:54:16.018Z,5.20
2022-12-19T19:56:44.421Z,4.82
2022-12-19T19:59:12.845Z,5.18
2022-12-19T20:01:42.751Z,4.35
2022-12-19T20:04:11.222Z,5.35
2022-12-19T20:06:39.677Z,4.68
2022-12-19T20:09:08.037Z,5.32
2022-12-19T20:11:36.442Z,5.07
2022-12-19T20:14:05.011Z,4.50
2022-12-19T20:16:33.829Z,5.03
2022-12-19T20:19:03.695Z,4.80
2022-12-19T20:21:33.434Z,4.47
2022-12-19T20:24:01.851Z,4.97
2022-12-19T20:26:30.240Z,4.13
2022-12-19T20:28:58.663Z,4.13
2022-12-19T20:31:27.212Z,4.15
2022-12-19T20:33:56.004Z,5.00
2022-12-19T20:36:26.225Z,4.47
2022-12-19T20:38:54.718Z,4.55
2022-12-19T20:41:23.170Z,4.78
2022-12-19T20:43:52.993Z,4.28
2022-12-19T20:46:22.171Z,4.72
2022-12-19T20:48:50.980Z,4.78
2022-12-19T20:51:20.742Z,4.28
2022-12-19T20:53:50.723Z,4.20
2022-12-19T20:56:20.647Z,4.32
2022-12-19T20:58:49.058Z,4.63
2022-12-19T21:01:18.871Z,4.05
2022-12-19T21:03:48.802Z,4.40
2022-12-19T21:06:18.724Z,4.30
2022-12-19T21:08:47.376Z,4.25
2022-12-19T21:11:17.262Z,4.32
2022-12-19T21:13:45.977Z,4.40
2022-12-19T21:16:15.657Z,4.30
2022-12-19T21:18:44.864Z,4.82
2022-12-19T21:21:15.511Z,4.50
2022-12-19T21:23:44.860Z,3.85
2022-12-19T21:26:13.385Z,3.97
2022-12-19T21:28:43.487Z,3.95
2022-12-19T21:31:14.994Z,4.03
2022-12-19T21:33:43.520Z,4.00
2022-12-19T21:36:13.858Z,4.10
2022-12-19T21:38:42.407Z,4.50
2022-12-19T21:41:11.112Z,3.47
2022-12-19T21:43:40.234Z,4.50
2022-12-19T21:46:11.346Z,3.90
2022-12-19T21:48:40.328Z,4.13
2022-12-19T21:51:09.413Z,3.85
2022-12-19T21:53:38.271Z,3.80
2022-12-19T21:56:07.362Z,3.63
2022-12-19T21:58:35.732Z,4.22
2022-12-19T22:01:12.642Z,3.78
2022-12-19T22:03:41.634Z,3.97
2022-12-19T22:06:10.470Z,3.63
2022-12-19T22:08:38.974Z,4.20
2022-12-19T22:11:12.023Z,3.22
2022-12-19T22:13:40.406Z,3.78
2022-12-19T22:16:09.156Z,3.97
2022-12-19T22:18:39.087Z,3.90
2022-12-19T22:21:07.924Z,3.75
2022-12-19T22:23:36.691Z,4.47
2022-12-19T22:26:05.881Z,3.42
2022-12-19T22:28:34.712Z,4.00
2022-12-19T22:31:03.162Z,3.45
2022-12-19T22:33:31.650Z,3.60
2022-12-19T22:36:06.136Z,3.67
2022-12-19T22:38:34.686Z,3.40
2022-12-19T22:41:05.255Z,3.80
2022-12-19T22:43:33.682Z,3.55
2022-12-19T22:46:02.103Z,3.45
2022-12-19T22:48:30.562Z,3.10
2022-12-19T22:50:58.941Z,3.40
2022-12-19T22:53:28.723Z,2.88
2022-12-19T22:55:57.079Z,3.15
2022-12-19T22:58:25.459Z,2.80
2022-12-19T23:00:53.818Z,3.25
2022-12-19T23:03:22.479Z,3.20
2022-12-19T23:05:52.179Z,3.20
2022-12-19T23:08:20.741Z,3.75
2022-12-19T23:10:52.614Z,2.97
2022-12-19T23:13:21.567Z,2.88
2022-12-19T23:15:49.924Z,3.03
2022-12-19T23:18:18.294Z,2.80
2022-12-19T23:20:46.663Z,3.00
2022-12-19T23:23:15.588Z,2.90
2022-12-19T23:25:44.676Z,3.28
2022-12-19T23:28:14.878Z,3.22
2022-12-19T23:30:43.586Z,2.55
2022-12-19T23:33:11.950Z,2.70
2022-12-19T23:35:40.300Z,2.67
2022-12-19T23:38:08.698Z,2.50
2022-12-19T23:40:37.267Z,3.10
2022-12-19T23:43:05.697Z,2.90
2022-12-19T23:45:39.286Z,2.80
2022-12-19T23:48:08.252Z,2.70
2022-12-19T23:50:36.672Z,2.80
2022-12-19T23:53:05.128Z,2.50
2022-12-19T23:55:33.545Z,3.50
2022-12-19T23:58:02.377Z,3.10
